createdAt,value
2022-08-23T00:00:55.058Z,97260.65
2022-08-23T00:03:30.288Z,97266.45
2022-08-23T00:06:23.024Z,97268.70
2022-08-23T00:08:57.332Z,97272.30
2022-08-23T00:11:34.428Z,97274.38
2022-08-23T00:14:14.369Z,97272.62
2022-08-23T00:16:48.321Z,97276.79
2022-08-23T00:19:22.965Z,97281.24
2022-08-23T00:21:57.057Z,97285.71
2022-08-23T00:24:30.336Z,97281.01
2022-08-23T00:27:04.911Z,97275.48
2022-08-23T00:29:41.298Z,97271.08
2022-08-23T00:32:17.651Z,97269.61
2022-08-23T00:34:53.045Z,97273.98
2022-08-23T00:37:27.434Z,97273.49
2022-08-23T00:40:00.506Z,97280.92
2022-08-23T00:42:56.942Z,97288.98
2022-08-23T00:45:52.098Z,97282.13
2022-08-23T00:48:25.468Z,97285.46
2022-08-23T00:51:04.767Z,97289.27
2022-08-23T00:53:42.359Z,97287.56
2022-08-23T00:56:19.398Z,97285.32
2022-08-23T00:58:52.969Z,97285.70
2022-08-23T05:46:09.446Z,97381.90
2022-08-23T05:48:53.484Z,97387.05
2022-08-23T05:51:30.349Z,97390.52
2022-08-23T05:54:05.290Z,97395.52
2022-08-23T05:56:41.959Z,97394.05
2022-08-23T05:59:20.639Z,97399.77
2022-08-23T06:01:54.241Z,97400.17
2022-08-23T06:04:26.561Z,97406.52
2022-08-23T06:07:00.642Z,97402.38
2022-08-23T06:09:33.855Z,97399.79
2022-08-23T06:12:07.362Z,97398.72
2022-08-23T06:14:39.900Z,97399.80
2022-08-23T06:17:13.472Z,97402.58
2022-08-23T06:19:45.882Z,97400.77
2022-08-23T06:22:34.282Z,97398.09
2022-08-23T06:25:09.558Z,97403.09
2022-08-23T06:28:12.399Z,97407.02
2022-08-23T06:30:50.862Z,97409.63
2022-08-23T06:33:32.445Z,97410.79
2022-08-23T06:36:23.143Z,97409.23
2022-08-23T06:39:14.871Z,97411.29
2022-08-23T06:42:38.282Z,97413.35
2022-08-23T06:45:11.382Z,97412.39
2022-08-23T06:47:47.770Z,97414.48
2022-08-23T06:50:32.501Z,97422.76
2022-08-23T06:53:40.852Z,97421.94
2022-08-23T06:56:32.858Z,97425.49
2022-08-23T06:59:15.444Z,97430.52
2022-08-23T07:02:10.843Z,97428.52
2022-08-23T07:05:04.929Z,97427.29
2022-08-23T07:08:00.139Z,97430.58
2022-08-23T07:10:32.499Z,97433.19
2022-08-23T07:13:07.170Z,97438.45
2022-08-23T07:15:39.521Z,97436.84
2022-08-23T07:18:14.246Z,97439.13
2022-08-23T07:20:46.523Z,97443.36
2022-08-23T07:23:19.791Z,97445.98
2022-08-23T07:25:53.962Z,97443.64
2022-08-23T07:28:30.473Z,97448.84
2022-08-23T07:31:14.588Z,97449.82
2022-08-23T07:33:49.621Z,97451.40
2022-08-23T07:36:28.039Z,97455.85
2022-08-23T07:39:02.719Z,97459.48
2022-08-23T07:41:39.039Z,97459.73
2022-08-23T07:44:18.062Z,97461.52
2022-08-23T07:46:52.160Z,97470.02
2022-08-23T07:49:29.436Z,97471.39
2022-08-23T07:52:04.722Z,97470.52
2022-08-23T07:54:38.706Z,97471.48
2022-08-23T07:57:31.851Z,97472.73
2022-08-23T08:00:31.282Z,97470.89
2022-08-23T08:03:16.548Z,97470.73
2022-08-23T08:06:16.671Z,97474.69
2022-08-23T08:08:49.899Z,97478.00
2022-08-23T08:11:22.721Z,97481.90
2022-08-23T08:13:56.631Z,97485.38
2022-08-23T08:16:33.827Z,97483.21
2022-08-23T08:19:09.349Z,97480.56
2022-08-23T08:22:04.985Z,97486.31
2022-08-23T08:24:58.471Z,97488.98
2022-08-23T08:27:33.989Z,97492.52
2022-08-23T08:30:11.807Z,97494.60
2022-08-23T08:32:47.472Z,97494.83
2022-08-23T08:35:21.011Z,97497.62
2022-08-23T08:37:54.914Z,97499.33
2022-08-23T08:40:33.610Z,97501.55
2022-08-23T08:43:21.026Z,97500.73
2022-08-23T08:46:03.710Z,97504.14
2022-08-23T08:48:45.240Z,97496.95
2022-08-23T08:51:38.681Z,97496.55
2022-08-23T08:54:15.902Z,97498.95
2022-08-23T08:56:55.863Z,97500.07
2022-08-23T08:59:39.050Z,97500.64
2022-08-23T09:02:33.351Z,97501.79
2022-08-23T09:05:16.724Z,97507.52
2022-08-23T09:08:00.784Z,97509.21
2022-08-23T09:10:51.952Z,97513.30
2022-08-23T09:14:01.719Z,97515.13
2022-08-23T09:16:51.790Z,97513.63
2022-08-23T09:19:27.432Z,97510.66
2022-08-23T09:22:03.704Z,97508.90
2022-08-23T09:24:37.241Z,97507.34
2022-08-23T09:27:16.370Z,97508.46
2022-08-23T09:29:56.935Z,97509.88
2022-08-23T09:32:38.029Z,97508.05
2022-08-23T09:35:18.139Z,97510.16
2022-08-23T09:38:03.847Z,97516.65
2022-08-23T09:40:42.659Z,97516.73
2022-08-23T09:43:18.141Z,97517.35
2022-08-23T09:46:01.711Z,97516.23
2022-08-23T09:48:40.998Z,97515.70
2022-08-23T09:51:28.590Z,97516.71
2022-08-23T09:54:12.834Z,97523.60
2022-08-23T09:56:52.359Z,97521.32
2022-08-23T09:59:32.922Z,97518.39
2022-08-23T10:02:18.930Z,97520.91
2022-08-23T10:05:01.467Z,97516.77
2022-08-23T10:07:42.391Z,97518.04
2022-08-23T10:10:26.869Z,97519.87
2022-08-23T10:13:02.638Z,97523.63
2022-08-23T10:15:53.149Z,97524.86
2022-08-23T10:18:36.905Z,97525.08
2022-08-23T10:21:20.965Z,97527.53
2022-08-23T10:24:08.561Z,97520.63
2022-08-23T10:26:53.260Z,97521.70
2022-08-23T10:29:39.722Z,97520.19
2022-08-23T10:32:23.120Z,97519.13
2022-08-23T10:35:09.449Z,97519.64
2022-08-23T10:38:00.839Z,97522.27
2022-08-23T10:40:39.777Z,97522.87
2022-08-23T10:43:26.161Z,97525.91
2022-08-23T10:46:05.807Z,97528.38
2022-08-23T10:48:50.521Z,97534.40
2022-08-23T10:51:31.856Z,97533.64
2022-08-23T10:54:10.254Z,97536.11
2022-08-23T10:56:51.179Z,97539.73
2022-08-23T10:59:27.191Z,97543.43
2022-08-23T11:02:22.912Z,97550.35
2022-08-23T11:05:09.021Z,97545.30
2022-08-23T11:07:43.171Z,97544.86
2022-08-23T11:10:28.474Z,97544.35
2022-08-23T11:13:04.440Z,97548.40
2022-08-23T11:15:45.227Z,97549.65
2022-08-23T11:18:39.973Z,97550.16
2022-08-23T11:21:35.041Z,97550.50
2022-08-23T11:24:36.781Z,97554.06
2022-08-23T11:27:10.702Z,97546.50
2022-08-23T11:29:48.011Z,97545.54
2022-08-23T11:32:47.534Z,97547.77
2022-08-23T11:35:43.239Z,97549.40
2022-08-23T11:38:41.281Z,97550.23
2022-08-23T11:41:30.088Z,97546.21
2022-08-23T11:44:42.401Z,97548.78
2022-08-23T11:47:17.650Z,97545.89
2022-08-23T11:50:04.549Z,97537.88
2022-08-23T11:53:10.476Z,97539.27
2022-08-23T11:56:06.199Z,97539.34
2022-08-23T11:59:08.598Z,97540.98
2022-08-23T12:01:43.689Z,97538.20
2022-08-23T12:04:33.942Z,97536.27
2022-08-23T12:07:15.560Z,97536.23
2022-08-23T12:10:00.062Z,97537.42
2022-08-23T12:12:43.957Z,97539.73
2022-08-23T12:15:43.081Z,97540.58
2022-08-23T12:18:23.943Z,97544.71
2022-08-23T12:21:03.459Z,97545.55
2022-08-23T12:23:50.179Z,97544.86
2022-08-23T12:26:30.229Z,97541.70
2022-08-23T12:29:08.939Z,97542.44
2022-08-23T12:31:53.594Z,97540.19
2022-08-23T12:34:34.202Z,97542.39
2022-08-23T12:37:15.649Z,97542.64
2022-08-23T12:39:57.042Z,97541.90
2022-08-23T12:42:37.458Z,97536.78
2022-08-23T12:45:20.519Z,97537.85
2022-08-23T12:48:02.470Z,97539.61
2022-08-23T12:50:38.621Z,97535.58
2022-08-23T12:53:13.689Z,97535.41
2022-08-23T12:55:54.316Z,97538.52
2022-08-23T12:58:33.971Z,97532.99
2022-08-23T13:01:10.967Z,97531.29
2022-08-23T13:03:48.081Z,97529.84
2022-08-23T13:06:27.731Z,97527.59
2022-08-23T13:09:10.909Z,97534.31
2022-08-23T13:11:49.169Z,97532.78
2022-08-23T13:14:35.785Z,97532.11
2022-08-23T13:17:24.199Z,97532.22
2022-08-23T13:20:13.671Z,97530.65
2022-08-23T13:23:02.780Z,97531.41
2022-08-23T13:25:40.912Z,97533.41
2022-08-23T13:28:28.509Z,97531.83
2022-08-23T13:31:06.166Z,97526.64
2022-08-23T13:33:40.878Z,97529.02
2022-08-23T13:36:19.359Z,97528.02
2022-08-23T13:38:56.842Z,97526.39
2022-08-23T13:41:38.861Z,97526.48
2022-08-23T13:44:18.385Z,97526.16
2022-08-23T13:46:57.288Z,97526.55
2022-08-23T13:49:31.970Z,97520.83
2022-08-23T13:52:45.546Z,97516.41
2022-08-23T13:55:05.801Z,97519.30
2022-08-23T13:57:44.761Z,97509.91
2022-08-23T14:00:29.848Z,97510.98
2022-08-23T14:03:02.553Z,97517.05
2022-08-23T14:05:36.245Z,97519.02
2022-08-23T14:08:10.076Z,97518.75
2022-08-23T14:10:46.812Z,97519.27
2022-08-23T14:13:23.268Z,97523.48
2022-08-23T14:19:16.426Z,97521.98
2022-08-23T14:21:51.070Z,97518.41
2022-08-23T14:24:26.904Z,97521.25
2022-08-23T14:27:00.179Z,97519.80
2022-08-23T14:29:35.315Z,97518.02
2022-08-23T14:32:08.031Z,97512.16
2022-08-23T14:34:40.690Z,97516.77
2022-08-23T14:40:04.186Z,97518.55
2022-08-23T14:42:36.828Z,97518.94
2022-08-23T14:45:11.530Z,97523.08
2022-08-23T14:47:46.700Z,97530.27
2022-08-23T14:50:19.109Z,97532.66
2022-08-23T14:52:51.595Z,97540.81
2022-08-23T14:55:25.424Z,97546.10
2022-08-23T14:57:58.077Z,97552.95
2022-08-23T15:00:29.777Z,97551.11
2022-08-23T15:03:06.371Z,97548.77
2022-08-23T15:05:41.830Z,97546.67
2022-08-23T15:08:12.728Z,97548.27
2022-08-23T15:12:55.285Z,97551.64
2022-08-23T15:13:55.096Z,97558.69
2022-08-23T15:16:28.561Z,97558.78
2022-08-23T15:19:01.701Z,97558.31
2022-08-23T15:21:36.258Z,97558.83
2022-08-23T15:24:11.832Z,97562.38
2022-08-23T15:26:50.362Z,97564.17
2022-08-23T15:29:23.239Z,97565.31
2022-08-23T15:31:56.341Z,97559.94
2022-08-23T15:34:29.220Z,97558.42
2022-08-23T15:37:05.064Z,97559.03
2022-08-23T15:39:38.238Z,97557.58
2022-08-23T15:42:14.277Z,97560.09
2022-08-23T15:44:51.532Z,97560.86
2022-08-23T15:47:29.329Z,97558.95
2022-08-23T15:50:03.753Z,97562.27
2022-08-23T15:52:36.021Z,97559.11
2022-08-23T15:55:09.542Z,97560.64
2022-08-23T15:57:46.522Z,97561.02
2022-08-23T16:00:21.809Z,97554.98
2022-08-23T16:03:19.143Z,97560.91
2022-08-23T16:05:54.093Z,97569.13
2022-08-23T16:08:29.720Z,97579.66
2022-08-23T16:11:09.368Z,97582.25
2022-08-23T16:13:44.491Z,97584.29
2022-08-23T16:16:21.277Z,97583.41
2022-08-23T16:18:58.457Z,97583.44
2022-08-23T16:21:32.476Z,97593.37
2022-08-23T16:24:05.877Z,97596.98
2022-08-23T16:26:42.022Z,97597.00
2022-08-23T16:29:20.841Z,97600.34
2022-08-23T16:31:54.151Z,97596.17
2022-08-23T16:34:26.761Z,97594.54
2022-08-23T16:37:06.510Z,97595.33
2022-08-23T16:39:39.541Z,97590.11
2022-08-23T16:42:11.981Z,97588.05
2022-08-23T16:44:44.309Z,97588.70
2022-08-23T16:47:17.411Z,97586.95
2022-08-23T16:49:49.711Z,97592.20
2022-08-23T16:52:31.045Z,97598.67
2022-08-23T16:55:09.842Z,97600.61
2022-08-23T16:57:43.221Z,97600.89
2022-08-23T17:00:16.948Z,97597.90
2022-08-23T17:02:49.924Z,97594.98
2022-08-23T17:05:22.319Z,97599.80
2022-08-23T17:07:55.533Z,97601.04
2022-08-23T17:10:29.981Z,97605.18
2022-08-23T17:13:03.294Z,97609.86
2022-08-23T17:15:37.770Z,97608.00
2022-08-23T17:18:10.675Z,97607.77
2022-08-23T17:20:41.239Z,97605.66
2022-08-23T17:23:14.461Z,97603.50
2022-08-23T17:25:50.361Z,97606.12
2022-08-23T17:28:23.100Z,97604.66
2022-08-23T17:30:55.942Z,97609.40
2022-08-23T17:33:28.469Z,97617.13
2022-08-23T17:36:00.711Z,97624.40
2022-08-23T17:38:33.312Z,97627.88
2022-08-23T17:41:08.694Z,97634.84
2022-08-23T17:43:49.684Z,97639.33
2022-08-23T17:46:25.365Z,97642.33
2022-08-23T17:49:03.221Z,97650.30
2022-08-23T17:51:39.436Z,97655.15
2022-08-23T17:54:20.295Z,97659.62
2022-08-23T17:56:58.317Z,97662.13
2022-08-23T17:59:34.261Z,97664.77
2022-08-23T18:02:09.769Z,97666.73
2022-08-23T18:04:44.939Z,97679.11
2022-08-23T18:07:24.116Z,97691.28
2022-08-23T18:09:59.998Z,97698.62
2022-08-23T18:12:33.721Z,97701.95
2022-08-23T18:15:14.469Z,97700.04
2022-08-23T18:17:48.631Z,97700.80
2022-08-23T18:20:24.420Z,97700.71
2022-08-23T18:22:59.461Z,97707.34
2022-08-23T18:25:33.188Z,97711.51
2022-08-23T18:28:10.649Z,97716.09
2022-08-23T18:30:52.933Z,97713.81
2022-08-23T18:33:32.274Z,97717.41
2022-08-23T18:36:27.269Z,97717.73
2022-08-23T18:39:04.126Z,97714.13
2022-08-23T18:41:37.991Z,97711.75
2022-08-23T18:44:10.332Z,97710.58
2022-08-23T18:46:48.495Z,97707.73
2022-08-23T18:49:24.720Z,97708.57
2022-08-23T18:52:04.689Z,97715.63
2022-08-23T18:54:40.580Z,97709.39
2022-08-23T18:57:17.744Z,97705.38
2022-08-23T18:59:53.493Z,97711.39
2022-08-23T19:02:28.106Z,97714.65
2022-08-23T19:05:03.243Z,97720.41
2022-08-23T19:07:35.871Z,97719.23
2022-08-23T19:10:09.679Z,97716.01
2022-08-23T19:12:51.922Z,97719.77
2022-08-23T19:15:29.089Z,97721.08
2022-08-23T19:18:02.236Z,97717.95
2022-08-23T19:20:33.000Z,97723.42
2022-08-23T19:23:07.721Z,97723.41
2022-08-23T19:25:40.218Z,97721.83
2022-08-23T19:28:20.491Z,97726.77
2022-08-23T19:30:53.809Z,97731.32
2022-08-23T19:33:26.520Z,97734.72
2022-08-23T19:35:59.363Z,97735.02
2022-08-23T19:38:30.403Z,97732.58
2022-08-23T19:41:05.830Z,97730.54
2022-08-23T19:43:44.589Z,97729.86
2022-08-23T19:46:20.317Z,97735.33
2022-08-23T19:48:54.359Z,97733.09
2022-08-23T19:51:30.217Z,97729.42
2022-08-23T19:54:10.874Z,97726.93
2022-08-23T19:56:50.890Z,97735.77
2022-08-23T19:59:25.908Z,97739.09
2022-08-23T20:02:01.860Z,97740.25
2022-08-23T20:04:36.210Z,97743.46
2022-08-23T20:07:09.492Z,97743.64
2022-08-23T20:09:41.964Z,97746.11
2022-08-23T20:12:15.991Z,97752.46
2022-08-23T20:14:49.972Z,97755.98
2022-08-23T20:17:23.628Z,97759.27
2022-08-23T20:19:56.362Z,97763.92
2022-08-23T20:22:45.952Z,97766.92
2022-08-23T20:25:19.369Z,97774.30
2022-08-23T20:27:51.643Z,97780.38
2022-08-23T20:30:24.096Z,97777.73
2022-08-23T20:32:56.745Z,97780.20
2022-08-23T20:35:29.330Z,97777.50
2022-08-23T20:38:02.662Z,97781.23
2022-08-23T20:40:35.291Z,97781.73
2022-08-23T20:43:07.600Z,97781.76
2022-08-23T20:45:40.453Z,97781.65
2022-08-23T20:48:15.291Z,97780.31
2022-08-23T20:50:48.089Z,97781.16
2022-08-23T20:53:20.831Z,97780.39
2022-08-23T20:55:54.483Z,97781.64
2022-08-23T20:58:27.791Z,97782.09
2022-08-23T21:01:04.063Z,97788.33
2022-08-23T21:03:42.151Z,97799.14
2022-08-23T21:06:20.952Z,97803.50
2022-08-23T21:08:57.675Z,97810.52
2022-08-23T21:11:32.471Z,97814.88
2022-08-23T21:14:06.669Z,97815.19
2022-08-23T21:16:40.659Z,97820.09
2022-08-23T21:19:13.306Z,97815.52
2022-08-23T21:21:46.318Z,97812.13
2022-08-23T21:24:16.961Z,97810.04
2022-08-23T21:26:50.912Z,97807.69
2022-08-23T21:29:23.611Z,97804.00
2022-08-23T21:31:56.179Z,97801.54
2022-08-23T21:34:28.322Z,97799.00
2022-08-23T21:37:01.181Z,97795.89
2022-08-23T21:39:33.641Z,97790.83
2022-08-23T21:42:15.237Z,97789.67
2022-08-23T21:44:50.099Z,97789.25
2022-08-23T21:47:23.082Z,97788.61
2022-08-23T21:49:57.169Z,97793.58
2022-08-23T21:52:29.799Z,97790.98
2022-08-23T21:55:02.061Z,97789.55
2022-08-23T21:57:36.110Z,97788.27
2022-08-23T22:00:16.278Z,97778.80
2022-08-23T22:02:49.615Z,97780.88
2022-08-23T22:05:20.080Z,97775.27
2022-08-23T22:07:52.692Z,97771.23
2022-08-23T22:10:25.809Z,97774.95
2022-08-23T22:13:01.593Z,97772.33
2022-08-23T22:15:34.192Z,97772.61
2022-08-23T22:18:08.072Z,97768.85
2022-08-23T22:20:40.533Z,97762.85
2022-08-23T22:23:12.892Z,97758.58
2022-08-23T22:25:45.220Z,97763.18
2022-08-23T22:28:17.498Z,97765.20
2022-08-23T22:30:49.978Z,97762.02
2022-08-23T22:33:22.717Z,97761.42
2022-08-23T22:35:55.410Z,97761.85
2022-08-23T22:38:27.821Z,97759.10
2022-08-23T22:41:02.044Z,97756.43
2022-08-23T22:43:34.712Z,97751.90
2022-08-23T22:46:07.999Z,97747.38
2022-08-23T22:48:41.283Z,97742.47
2022-08-23T22:51:13.266Z,97749.90
2022-08-23T22:53:49.040Z,97747.73
2022-08-23T22:56:24.340Z,97748.10
2022-08-23T22:59:02.042Z,97748.36
2022-08-23T23:01:44.930Z,97753.85
2022-08-23T23:04:19.005Z,97751.67
2022-08-23T23:06:53.090Z,97752.33
2022-08-23T23:09:26.552Z,97756.73
2022-08-23T23:12:01.472Z,97758.41
2022-08-23T23:14:33.841Z,97758.75
2022-08-23T23:17:06.478Z,97759.09
2022-08-23T23:19:57.402Z,97762.52
2022-08-23T23:22:29.613Z,97762.04
2022-08-23T23:25:04.609Z,97764.84
2022-08-23T23:27:36.951Z,97764.84
2022-08-23T23:30:11.639Z,97762.86
2022-08-23T23:32:44.193Z,97757.34
2022-08-23T23:35:16.781Z,97753.67
2022-08-23T23:37:49.775Z,97755.58
2022-08-23T23:40:26.155Z,97751.19
2022-08-23T23:42:59.052Z,97758.54
2022-08-23T23:45:31.738Z,97756.88
2022-08-23T23:48:06.559Z,97754.55
2022-08-23T23:50:46.414Z,97750.77
2022-08-23T23:53:19.871Z,97749.55
2022-08-23T23:55:59.942Z,97754.89
2022-08-23T23:58:32.312Z,97757.79
